Time;durP1;ratioP1;P1;durP2;ratioP2;P2;SDS_P1;SDS_P2;PMS_P1;PMS_P2;Temp;Humidity;BMP_temperature;BMP_pressure;BME280_temperature;BME280_humidity;BME280_pressure;Samples;Min_cycle;Max_cycle;Signal;HPM_P1;HPM_P2
2023/03/02 00:01:31;;;;;;;;;;;3.50;99.90;;;;;;5111755;28;19924;-76
2023/03/02 00:03:58;;;;;;;;;;;3.50;99.90;;;;;;5107263;28;19977;-76
2023/03/02 00:06:42;;;;;;;;;;;3.50;99.90;;;;;;5107539;28;19922;-76
2023/03/02 00:09:07;;;;;;;;;;;3.50;99.90;;;;;;5103683;28;19924;-76
2023/03/02 00:11:34;;;;;;;;;;;3.50;99.90;;;;;;5105526;28;19924;-76
2023/03/02 00:13:59;;;;;;;;;;;3.40;99.90;;;;;;5110506;28;19970;-76
2023/03/02 00:16:25;;;;;;;;;;;3.40;99.90;;;;;;5110588;28;20667;-76
2023/03/02 00:18:50;;;;;;;;;;;3.40;99.90;;;;;;5105771;28;20301;-76
2023/03/02 00:21:16;;;;;;;;;;;3.40;99.90;;;;;;5105480;28;19931;-76
2023/03/02 00:23:42;;;;;;;;;;;3.40;99.90;;;;;;5112401;28;19977;-76
2023/03/02 00:26:07;;;;;;;;;;;3.40;99.90;;;;;;5111043;28;19946;-76
2023/03/02 00:28:33;;;;;;;;;;;3.40;99.90;;;;;;5110599;28;20019;-76
2023/03/02 00:30:59;;;;;;;;;;;3.40;99.90;;;;;;5112658;28;19928;-76
2023/03/02 00:33:24;;;;;;;;;;;3.40;99.90;;;;;;5110592;28;19946;-76
2023/03/02 00:35:50;;;;;;;;;;;3.40;99.90;;;;;;5110973;28;19927;-76
2023/03/02 00:38:15;;;;;;;;;;;3.40;99.90;;;;;;5109140;28;19931;-76
2023/03/02 00:40:45;;;;;;;;;;;3.40;99.90;;;;;;5110556;28;19928;-77
2023/03/02 00:43:11;;;;;;;;;;;3.30;99.90;;;;;;5110839;28;20036;-76
2023/03/02 00:45:36;;;;;;;;;;;3.30;99.90;;;;;;5110725;28;20425;-76
2023/03/02 00:48:02;;;;;;;;;;;3.30;99.90;;;;;;5110324;28;19931;-76
2023/03/02 00:50:27;;;;;;;;;;;3.30;99.90;;;;;;5108829;28;19967;-76
2023/03/02 00:52:53;;;;;;;;;;;3.30;99.90;;;;;;5098119;28;19928;-76
2023/03/02 00:55:18;;;;;;;;;;;3.30;99.90;;;;;;5111204;28;20019;-76
2023/03/02 00:57:53;;;;;;;;;;;3.30;99.90;;;;;;5110250;28;19923;-76
2023/03/02 01:00:23;;;;;;;;;;;3.20;99.90;;;;;;5110339;28;20314;-76
2023/03/02 01:02:49;;;;;;;;;;;3.20;99.90;;;;;;5111240;28;20335;-76
2023/03/02 01:05:15;;;;;;;;;;;3.20;99.90;;;;;;5107364;28;20425;-76
2023/03/02 01:07:41;;;;;;;;;;;3.20;99.90;;;;;;5098454;28;19977;-76
2023/03/02 01:10:06;;;;;;;;;;;3.20;99.90;;;;;;5108607;28;20002;-76
2023/03/02 01:12:32;;;;;;;;;;;3.20;99.90;;;;;;5109367;28;19924;-76
2023/03/02 01:14:58;;;;;;;;;;;3.20;99.90;;;;;;5110095;28;19950;-76
2023/03/02 01:17:24;;;;;;;;;;;3.20;99.90;;;;;;5108142;28;19953;-76
2023/03/02 01:19:50;;;;;;;;;;;3.20;99.90;;;;;;5108604;28;19954;-76
2023/03/02 01:22:15;;;;;;;;;;;3.20;99.90;;;;;;5102205;28;19982;-76
2023/03/02 01:24:41;;;;;;;;;;;3.20;99.90;;;;;;5105623;28;19928;-76
2023/03/02 01:27:07;;;;;;;;;;;3.20;99.90;;;;;;5108931;28;20434;-76
2023/03/02 01:29:32;;;;;;;;;;;3.10;99.90;;;;;;5110214;28;20275;-76
2023/03/02 01:31:58;;;;;;;;;;;3.20;99.90;;;;;;5101351;28;20329;-76
2023/03/02 01:34:23;;;;;;;;;;;3.20;99.90;;;;;;5104234;28;19969;-76
2023/03/02 01:36:49;;;;;;;;;;;3.20;99.90;;;;;;5098252;28;19923;-76
2023/03/02 01:39:15;;;;;;;;;;;3.20;99.90;;;;;;5108350;28;20396;-76
2023/03/02 01:41:44;;;;;;;;;;;3.20;99.90;;;;;;5108923;28;19924;-76
2023/03/02 01:44:28;;;;;;;;;;;3.20;99.90;;;;;;5109747;28;19924;-76
2023/03/02 01:46:54;;;;;;;;;;;3.20;99.90;;;;;;5108534;28;19924;-76
2023/03/02 01:49:20;;;;;;;;;;;3.20;99.90;;;;;;5108096;28;19946;-76
2023/03/02 01:51:46;;;;;;;;;;;3.20;99.90;;;;;;5108347;28;19930;-76
2023/03/02 01:54:16;;;;;;;;;;;3.20;99.90;;;;;;5108753;28;19965;-76
2023/03/02 01:56:43;;;;;;;;;;;3.20;99.90;;;;;;5109614;28;19927;-76
2023/03/02 01:59:10;;;;;;;;;;;3.20;99.90;;;;;;5109070;28;20300;-76
2023/03/02 02:01:38;;;;;;;;;;;3.20;99.90;;;;;;5110905;28;19928;-77
2023/03/02 02:04:05;;;;;;;;;;;3.20;99.90;;;;;;5108996;28;19924;-76
2023/03/02 02:06:36;;;;;;;;;;;3.10;99.90;;;;;;5109314;28;19927;-76
2023/03/02 02:09:03;;;;;;;;;;;3.10;99.90;;;;;;5096436;28;19935;-76
2023/03/02 02:11:28;;;;;;;;;;;3.10;99.90;;;;;;5108364;28;19924;-77
2023/03/02 02:13:56;;;;;;;;;;;3.00;99.90;;;;;;5090764;28;19931;-78
2023/03/02 02:16:21;;;;;;;;;;;3.00;99.90;;;;;;5104354;28;20010;-76
2023/03/02 02:18:47;;;;;;;;;;;3.00;99.90;;;;;;5102392;28;20027;-77
2023/03/02 02:21:13;;;;;;;;;;;3.00;99.90;;;;;;5102670;28;20003;-77
2023/03/02 02:23:41;;;;;;;;;;;3.00;99.90;;;;;;5108932;28;20056;-77
2023/03/02 02:26:17;;;;;;;;;;;3.00;99.90;;;;;;5104375;28;19928;-77
2023/03/02 02:28:47;;;;;;;;;;;3.00;99.90;;;;;;5102125;28;19924;-77
2023/03/02 02:31:21;;;;;;;;;;;3.00;99.90;;;;;;5102318;28;19931;-77
2023/03/02 02:33:49;;;;;;;;;;;3.00;99.90;;;;;;5101851;28;19930;-77
2023/03/02 02:36:18;;;;;;;;;;;3.00;99.90;;;;;;5091757;28;19930;-76
2023/03/02 02:38:46;;;;;;;;;;;3.00;99.90;;;;;;5102796;28;20386;-77
2023/03/02 02:41:16;;;;;;;;;;;2.90;99.90;;;;;;5089836;28;19924;-77
2023/03/02 02:43:42;;;;;;;;;;;2.90;99.90;;;;;;5089246;28;19993;-77
2023/03/02 02:46:09;;;;;;;;;;;2.90;99.90;;;;;;5090680;28;20394;-77
2023/03/02 02:48:35;;;;;;;;;;;2.90;99.90;;;;;;5108244;28;19970;-77
2023/03/02 02:51:01;;;;;;;;;;;2.80;99.90;;;;;;5091357;28;19924;-77
2023/03/02 02:53:45;;;;;;;;;;;2.80;99.90;;;;;;5091731;28;19938;-77
2023/03/02 02:56:12;;;;;;;;;;;2.80;99.90;;;;;;5108223;28;19924;-77
2023/03/02 02:58:52;;;;;;;;;;;2.70;99.90;;;;;;5096325;28;19974;-77
2023/03/02 03:01:19;;;;;;;;;;;2.70;99.90;;;;;;5095135;28;20035;-77
2023/03/02 03:03:47;;;;;;;;;;;2.70;99.90;;;;;;5108555;28;20387;-77
2023/03/02 03:06:16;;;;;;;;;;;2.70;99.90;;;;;;5108323;28;20338;-77
2023/03/02 03:08:45;;;;;;;;;;;2.60;99.90;;;;;;5108657;28;19950;-77
2023/03/02 03:11:12;;;;;;;;;;;2.60;99.90;;;;;;5108153;28;19931;-77
2023/03/02 03:13:38;;;;;;;;;;;2.60;99.90;;;;;;5093872;28;19960;-77
2023/03/02 03:16:11;;;;;;;;;;;2.50;99.90;;;;;;5101673;28;20402;-77
2023/03/02 03:18:37;;;;;;;;;;;2.50;99.90;;;;;;5100067;28;20378;-77
2023/03/02 03:21:03;;;;;;;;;;;2.50;99.90;;;;;;5108372;28;19935;-77
2023/03/02 03:23:29;;;;;;;;;;;2.50;99.90;;;;;;5108109;28;19967;-77
2023/03/02 03:25:54;;;;;;;;;;;2.60;99.90;;;;;;5091377;28;20262;-77
2023/03/02 03:28:20;;;;;;;;;;;2.60;99.90;;;;;;5108933;28;19954;-77
2023/03/02 03:30:45;;;;;;;;;;;2.60;99.90;;;;;;5108477;28;19932;-77
2023/03/02 03:33:11;;;;;;;;;;;2.60;99.90;;;;;;5108003;28;19924;-77
2023/03/02 03:35:37;;;;;;;;;;;2.60;99.90;;;;;;5105093;28;19931;-77
2023/03/02 03:38:03;;;;;;;;;;;2.60;99.90;;;;;;5099547;28;19930;-77
2023/03/02 03:40:33;;;;;;;;;;;2.60;99.90;;;;;;5108146;28;20726;-77
2023/03/02 03:42:59;;;;;;;;;;;2.50;99.90;;;;;;5110195;28;20014;-77
2023/03/02 03:45:24;;;;;;;;;;;2.60;99.90;;;;;;5098520;28;19931;-76
2023/03/02 03:47:50;;;;;;;;;;;2.50;99.90;;;;;;5112006;28;20680;-76
2023/03/02 03:50:15;;;;;;;;;;;2.50;99.90;;;;;;5111294;28;19927;-77
2023/03/02 03:52:41;;;;;;;;;;;2.50;99.90;;;;;;5111949;28;19932;-76
2023/03/02 03:55:07;;;;;;;;;;;2.50;99.90;;;;;;5112943;28;19924;-77
2023/03/02 03:57:32;;;;;;;;;;;2.50;99.90;;;;;;5111829;28;19924;-77
2023/03/02 03:59:58;;;;;;;;;;;2.50;99.90;;;;;;5112120;28;19931;-77
2023/03/02 04:02:23;;;;;;;;;;;2.60;99.90;;;;;;5104922;28;19924;-77
2023/03/02 04:04:49;;;;;;;;;;;2.60;99.90;;;;;;5105248;28;20397;-77
2023/03/02 04:07:15;;;;;;;;;;;2.60;99.90;;;;;;5094437;28;19996;-76
2023/03/02 04:09:41;;;;;;;;;;;2.50;99.90;;;;;;5111127;28;19930;-77
2023/03/02 04:12:06;;;;;;;;;;;2.50;99.90;;;;;;5111295;28;20323;-77
2023/03/02 04:14:32;;;;;;;;;;;2.50;99.90;;;;;;5112575;28;20014;-77
2023/03/02 04:16:58;;;;;;;;;;;2.50;99.90;;;;;;5111492;28;19928;-77
2023/03/02 04:19:23;;;;;;;;;;;2.50;99.90;;;;;;5111079;28;19977;-77
2023/03/02 04:21:50;;;;;;;;;;;2.50;99.90;;;;;;5111335;28;19931;-77
2023/03/02 04:24:17;;;;;;;;;;;2.40;99.90;;;;;;5111115;28;19924;-76
2023/03/02 04:26:43;;;;;;;;;;;2.40;99.90;;;;;;5112093;28;20479;-77
2023/03/02 04:29:09;;;;;;;;;;;2.40;99.90;;;;;;5110599;28;20351;-77
2023/03/02 04:31:35;;;;;;;;;;;2.40;99.90;;;;;;5111099;28;19930;-77
2023/03/02 04:34:03;;;;;;;;;;;2.30;99.90;;;;;;5111028;28;20374;-77
2023/03/02 04:36:28;;;;;;;;;;;2.30;99.90;;;;;;5112406;28;19928;-77
2023/03/02 04:38:54;;;;;;;;;;;2.30;99.90;;;;;;5110656;28;20014;-77
2023/03/02 04:41:20;;;;;;;;;;;2.30;99.90;;;;;;5097659;28;20011;-76
2023/03/02 04:43:46;;;;;;;;;;;2.30;99.90;;;;;;5101263;28;20002;-76
2023/03/02 04:46:17;;;;;;;;;;;2.20;99.90;;;;;;5097245;28;20019;-76
2023/03/02 04:48:42;;;;;;;;;;;2.30;99.90;;;;;;5096960;28;20068;-76
2023/03/02 04:51:22;;;;;;;;;;;2.30;99.90;;;;;;5107450;28;19939;-76
2023/03/02 04:53:51;;;;;;;;;;;2.30;99.90;;;;;;5102585;28;20348;-76
2023/03/02 04:56:17;;;;;;;;;;;2.30;99.90;;;;;;5079879;28;20019;-76
2023/03/02 04:58:42;;;;;;;;;;;2.30;99.90;;;;;;5111781;28;20018;-77
2023/03/02 05:01:09;;;;;;;;;;;2.40;99.90;;;;;;5095097;28;19924;-76
2023/03/02 05:03:34;;;;;;;;;;;2.30;99.90;;;;;;5098385;28;20014;-76
2023/03/02 05:06:01;;;;;;;;;;;2.30;99.90;;;;;;5093355;28;20018;-76
2023/03/02 05:08:26;;;;;;;;;;;2.30;99.90;;;;;;5111272;28;19935;-76
2023/03/02 05:10:52;;;;;;;;;;;2.30;99.90;;;;;;5108291;28;20340;-76
2023/03/02 05:13:17;;;;;;;;;;;2.30;99.90;;;;;;5098670;28;19934;-76
2023/03/02 05:15:43;;;;;;;;;;;2.30;99.90;;;;;;5111234;28;19928;-76
2023/03/02 05:18:09;;;;;;;;;;;2.20;99.90;;;;;;5097854;28;19955;-76
2023/03/02 05:20:35;;;;;;;;;;;2.20;99.90;;;;;;5111475;28;19924;-76
2023/03/02 05:23:02;;;;;;;;;;;2.10;99.90;;;;;;5110056;28;20434;-77
2023/03/02 05:25:28;;;;;;;;;;;2.10;99.90;;;;;;5103213;28;19930;-76
2023/03/02 05:27:54;;;;;;;;;;;2.20;99.90;;;;;;5104183;28;20019;-76
2023/03/02 05:30:20;;;;;;;;;;;2.10;99.90;;;;;;5099209;28;20390;-76
2023/03/02 05:32:46;;;;;;;;;;;2.10;99.90;;;;;;5109462;28;19923;-77
2023/03/02 05:35:12;;;;;;;;;;;2.10;99.90;;;;;;5086407;28;19924;-76
2023/03/02 05:37:43;;;;;;;;;;;2.10;99.90;;;;;;5088001;28;19959;-76
2023/03/02 05:40:10;;;;;;;;;;;2.10;99.90;;;;;;5092663;28;19932;-76
2023/03/02 05:42:36;;;;;;;;;;;2.10;99.90;;;;;;5091821;28;19924;-76
2023/03/02 05:45:03;;;;;;;;;;;2.10;99.90;;;;;;5098060;28;19931;-76
2023/03/02 05:47:29;;;;;;;;;;;2.10;99.90;;;;;;5106410;28;19924;-76
2023/03/02 05:49:54;;;;;;;;;;;2.00;99.90;;;;;;5110507;28;19931;-76
2023/03/02 05:52:20;;;;;;;;;;;2.00;99.90;;;;;;5094241;28;19936;-76
2023/03/02 05:54:45;;;;;;;;;;;2.00;99.90;;;;;;5108615;28;19931;-76
2023/03/02 05:57:11;;;;;;;;;;;2.00;99.90;;;;;;5108248;28;19923;-76
2023/03/02 05:59:37;;;;;;;;;;;2.00;99.90;;;;;;5108941;28;19928;-77
2023/03/02 06:02:03;;;;;;;;;;;2.10;99.90;;;;;;5107424;28;19927;-76
2023/03/02 06:04:28;;;;;;;;;;;2.00;99.90;;;;;;5109177;28;19928;-76
2023/03/02 06:06:54;;;;;;;;;;;2.10;99.90;;;;;;5109580;28;19924;-76
2023/03/02 06:09:21;;;;;;;;;;;2.00;99.90;;;;;;5101845;28;20037;-76
2023/03/02 06:11:46;;;;;;;;;;;2.00;99.90;;;;;;5103635;28;19963;-76
2023/03/02 06:14:12;;;;;;;;;;;2.00;99.90;;;;;;5110107;28;20024;-76
2023/03/02 06:16:38;;;;;;;;;;;2.00;99.90;;;;;;5094452;28;19977;-76
2023/03/02 06:19:03;;;;;;;;;;;2.00;99.90;;;;;;5101566;28;19928;-76
2023/03/02 06:21:29;;;;;;;;;;;2.00;99.90;;;;;;5104883;28;19971;-76
2023/03/02 06:23:54;;;;;;;;;;;2.00;99.90;;;;;;5102199;28;19924;-76
2023/03/02 06:26:20;;;;;;;;;;;2.00;99.90;;;;;;5103208;28;19931;-77
2023/03/02 06:28:45;;;;;;;;;;;2.00;99.90;;;;;;5096483;28;19984;-76
2023/03/02 06:31:11;;;;;;;;;;;2.00;99.90;;;;;;5108076;28;19931;-76
2023/03/02 06:33:36;;;;;;;;;;;2.00;99.90;;;;;;5108491;28;19931;-76
2023/03/02 06:36:02;;;;;;;;;;;2.00;99.90;;;;;;5110493;28;20612;-76
2023/03/02 06:38:27;;;;;;;;;;;2.00;99.90;;;;;;5110386;28;19924;-77
2023/03/02 06:40:53;;;;;;;;;;;2.00;99.90;;;;;;5098321;28;19977;-77
2023/03/02 06:43:18;;;;;;;;;;;2.00;99.90;;;;;;5108477;28;19928;-76
2023/03/02 06:45:44;;;;;;;;;;;2.00;99.90;;;;;;5108119;28;19998;-76
2023/03/02 06:48:09;;;;;;;;;;;1.90;99.90;;;;;;5108831;28;20428;-77
2023/03/02 06:50:35;;;;;;;;;;;1.90;99.90;;;;;;5101314;28;20414;-77
2023/03/02 06:53:00;;;;;;;;;;;1.90;99.90;;;;;;5097677;28;19931;-79
2023/03/02 06:55:26;;;;;;;;;;;1.90;99.90;;;;;;5092926;28;19930;-77
2023/03/02 06:57:51;;;;;;;;;;;1.90;99.90;;;;;;5106703;28;19924;-76
2023/03/02 07:00:23;;;;;;;;;;;1.90;99.90;;;;;;5095012;28;19985;-76
2023/03/02 07:02:52;;;;;;;;;;;1.80;99.90;;;;;;5108755;28;19966;-76
2023/03/02 07:05:18;;;;;;;;;;;1.80;99.90;;;;;;5095095;28;19968;-76
2023/03/02 07:07:44;;;;;;;;;;;1.80;99.90;;;;;;5108091;28;19974;-76
2023/03/02 07:10:12;;;;;;;;;;;1.80;99.90;;;;;;5107039;28;19931;-76
2023/03/02 07:12:38;;;;;;;;;;;1.80;99.90;;;;;;5096167;28;20011;-76
2023/03/02 07:15:04;;;;;;;;;;;1.80;99.90;;;;;;5105924;28;19924;-76
2023/03/02 07:17:29;;;;;;;;;;;1.80;99.90;;;;;;5107966;28;20042;-77
2023/03/02 07:19:55;;;;;;;;;;;1.80;99.90;;;;;;5105762;28;19927;-76
2023/03/02 07:22:20;;;;;;;;;;;1.70;99.90;;;;;;5101929;28;19978;-76
2023/03/02 07:24:46;;;;;;;;;;;1.70;99.90;;;;;;5098360;28;20056;-76
2023/03/02 07:27:11;;;;;;;;;;;1.70;99.90;;;;;;5105035;28;19931;-76
2023/03/02 07:29:37;;;;;;;;;;;1.70;99.90;;;;;;5112102;28;19935;-76
2023/03/02 07:32:03;;;;;;;;;;;1.60;99.90;;;;;;5099465;28;19924;-76
2023/03/02 07:34:28;;;;;;;;;;;1.70;99.90;;;;;;5111651;28;19968;-76
2023/03/02 07:36:54;;;;;;;;;;;1.70;99.90;;;;;;5104641;28;19975;-76
2023/03/02 07:39:19;;;;;;;;;;;1.70;99.90;;;;;;5097300;28;19924;-77
2023/03/02 07:41:45;;;;;;;;;;;1.70;99.90;;;;;;5075615;28;20398;-77
2023/03/02 07:44:11;;;;;;;;;;;1.80;99.90;;;;;;5097642;28;20347;-77
2023/03/02 07:46:36;;;;;;;;;;;1.80;99.90;;;;;;5093669;28;19924;-77
2023/03/02 07:49:02;;;;;;;;;;;1.90;99.90;;;;;;5097330;28;19924;-77
2023/03/02 07:51:28;;;;;;;;;;;1.90;99.90;;;;;;5097327;28;19956;-76
2023/03/02 07:53:56;;;;;;;;;;;2.00;99.90;;;;;;5098762;28;19931;-77
2023/03/02 07:56:22;;;;;;;;;;;2.10;99.90;;;;;;5102345;28;20393;-76
2023/03/02 07:58:47;;;;;;;;;;;2.10;99.90;;;;;;5105948;28;19932;-76
2023/03/02 08:01:13;;;;;;;;;;;2.10;99.90;;;;;;5108270;28;20420;-77
2023/03/02 08:03:38;;;;;;;;;;;2.20;99.90;;;;;;5102732;28;19967;-77
2023/03/02 08:06:05;;;;;;;;;;;2.20;99.90;;;;;;5098090;28;19931;-76
2023/03/02 08:08:31;;;;;;;;;;;2.20;99.90;;;;;;5110058;28;20373;-76
2023/03/02 08:11:02;;;;;;;;;;;2.20;99.90;;;;;;5090607;28;19928;-77
2023/03/02 08:13:28;;;;;;;;;;;2.20;99.90;;;;;;5112063;28;20018;-77
2023/03/02 08:15:58;;;;;;;;;;;2.20;99.90;;;;;;5104985;28;20433;-77
2023/03/02 08:18:23;;;;;;;;;;;2.20;99.90;;;;;;5094220;28;19924;-76
2023/03/02 08:20:49;;;;;;;;;;;2.30;99.90;;;;;;5109547;28;20404;-76
2023/03/02 08:23:14;;;;;;;;;;;2.30;99.90;;;;;;5095081;28;19960;-76
2023/03/02 08:25:41;;;;;;;;;;;2.40;99.90;;;;;;5103862;28;20011;-77
2023/03/02 08:28:06;;;;;;;;;;;2.40;99.90;;;;;;5096314;28;19924;-77
2023/03/02 08:30:32;;;;;;;;;;;2.40;99.90;;;;;;5102943;28;19976;-77
2023/03/02 08:32:57;;;;;;;;;;;2.40;99.90;;;;;;5101289;28;20480;-77
2023/03/02 08:35:23;;;;;;;;;;;2.30;99.90;;;;;;5111813;28;19923;-77
2023/03/02 08:37:48;;;;;;;;;;;2.30;99.90;;;;;;5106812;28;19924;-77
2023/03/02 08:40:14;;;;;;;;;;;2.30;99.90;;;;;;5110251;28;20073;-77
2023/03/02 08:42:39;;;;;;;;;;;2.40;99.90;;;;;;5108489;28;20445;-76
2023/03/02 08:45:05;;;;;;;;;;;2.30;99.90;;;;;;5093101;28;19931;-77
2023/03/02 08:47:31;;;;;;;;;;;2.40;99.90;;;;;;5100808;28;20267;-76
2023/03/02 08:49:57;;;;;;;;;;;2.40;99.90;;;;;;5110429;28;19924;-76
2023/03/02 08:52:22;;;;;;;;;;;2.50;99.90;;;;;;5106040;28;20360;-77
2023/03/02 08:54:47;;;;;;;;;;;2.60;99.90;;;;;;5110060;28;19932;-77
2023/03/02 08:57:13;;;;;;;;;;;2.60;99.90;;;;;;5102390;28;19947;-77
2023/03/02 08:59:39;;;;;;;;;;;2.70;99.90;;;;;;5098803;28;19949;-77
2023/03/02 09:02:04;;;;;;;;;;;2.60;99.90;;;;;;5104604;28;19923;-77
2023/03/02 09:04:30;;;;;;;;;;;2.60;99.90;;;;;;5095013;28;19923;-77
2023/03/02 09:06:55;;;;;;;;;;;2.60;99.90;;;;;;5100703;28;19927;-77
2023/03/02 09:09:21;;;;;;;;;;;2.70;99.90;;;;;;5103216;28;19923;-77
2023/03/02 09:11:46;;;;;;;;;;;2.80;99.90;;;;;;5101998;28;19949;-75
2023/03/02 09:14:12;;;;;;;;;;;2.80;99.90;;;;;;5111565;28;19924;-76
2023/03/02 09:16:37;;;;;;;;;;;3.00;99.90;;;;;;5104144;28;20015;-77
2023/03/02 09:19:03;;;;;;;;;;;3.00;99.90;;;;;;5103952;28;19930;-77
2023/03/02 09:21:28;;;;;;;;;;;3.00;99.90;;;;;;5102129;28;19974;-77
2023/03/02 09:23:57;;;;;;;;;;;3.10;99.90;;;;;;5102705;28;19976;-77
2023/03/02 09:26:24;;;;;;;;;;;3.20;99.90;;;;;;5103427;28;19980;-77
2023/03/02 09:28:49;;;;;;;;;;;3.30;99.90;;;;;;5104343;28;20595;-77
2023/03/02 09:31:15;;;;;;;;;;;3.40;99.90;;;;;;5105488;28;19979;-76
2023/03/02 09:33:40;;;;;;;;;;;3.40;99.90;;;;;;5110616;28;19924;-76
2023/03/02 09:36:07;;;;;;;;;;;3.40;99.90;;;;;;5104557;28;19942;-76
2023/03/02 09:38:32;;;;;;;;;;;3.40;99.90;;;;;;5102935;28;19924;-77
2023/03/02 09:41:04;;;;;;;;;;;3.50;99.90;;;;;;5086333;28;19931;-77
2023/03/02 09:43:34;;;;;;;;;;;3.50;99.90;;;;;;5102578;28;20335;-77
2023/03/02 09:46:20;;;;;;;;;;;3.50;99.90;;;;;;5110278;28;20022;-77
2023/03/02 09:48:59;;;;;;;;;;;3.50;99.90;;;;;;5099798;28;19924;-77
2023/03/02 09:51:28;;;;;;;;;;;3.50;99.90;;;;;;5094391;28;19928;-77
2023/03/02 09:54:00;;;;;;;;;;;3.50;99.90;;;;;;5095888;28;20386;-76
2023/03/02 09:56:26;;;;;;;;;;;3.60;99.90;;;;;;5092122;28;20022;-76
2023/03/02 09:58:57;;;;;;;;;;;3.70;99.90;;;;;;5091932;28;20022;-77
2023/03/02 10:01:34;;;;;;;;;;;3.80;99.90;;;;;;5098000;28;19924;-77
2023/03/02 10:04:16;;;;;;;;;;;3.80;99.90;;;;;;5091553;28;20018;-77
2023/03/02 10:06:42;;;;;;;;;;;3.90;99.90;;;;;;5095436;28;19924;-77
2023/03/02 10:09:08;;;;;;;;;;;3.90;99.90;;;;;;5094921;28;19931;-76
2023/03/02 10:11:57;;;;;;;;;;;4.00;99.90;;;;;;5094056;28;20397;-77
2023/03/02 10:14:28;;;;;;;;;;;4.00;99.90;;;;;;5088822;28;19931;-77
2023/03/02 10:17:03;;;;;;;;;;;4.00;99.90;;;;;;5092323;28;19977;-77
2023/03/02 10:19:40;;;;;;;;;;;4.10;99.90;;;;;;5085795;28;19932;-76
2023/03/02 10:22:20;;;;;;;;;;;4.20;99.90;;;;;;5094803;28;19928;-77
2023/03/02 10:24:54;;;;;;;;;;;4.20;99.90;;;;;;5092284;28;19939;-77
2023/03/02 10:27:26;;;;;;;;;;;4.20;99.90;;;;;;5100322;28;19961;-77
2023/03/02 10:29:56;;;;;;;;;;;4.20;99.90;;;;;;5108593;28;20425;-77
2023/03/02 10:32:42;;;;;;;;;;;4.30;99.90;;;;;;5102780;28;19934;-77
2023/03/02 10:35:14;;;;;;;;;;;4.40;99.90;;;;;;5097484;28;19924;-77
2023/03/02 10:37:40;;;;;;;;;;;4.50;99.90;;;;;;5094193;28;20394;-76
2023/03/02 10:40:10;;;;;;;;;;;4.70;99.90;;;;;;5098447;28;19934;-77
2023/03/02 10:42:36;;;;;;;;;;;4.70;99.90;;;;;;5100293;28;19923;-77
2023/03/02 10:45:15;;;;;;;;;;;4.70;99.90;;;;;;5101953;28;19931;-76
2023/03/02 10:47:41;;;;;;;;;;;4.60;99.90;;;;;;5108699;28;19974;-76
2023/03/02 10:50:22;;;;;;;;;;;4.60;99.90;;;;;;5104637;28;19963;-76
2023/03/02 10:52:49;;;;;;;;;;;4.60;99.90;;;;;;5111531;28;20181;-82
2023/03/02 10:55:14;;;;;;;;;;;4.50;99.90;;;;;;5105609;28;19976;-76
2023/03/02 10:57:44;;;;;;;;;;;4.50;99.90;;;;;;5105841;28;19963;-77
2023/03/02 11:00:17;;;;;;;;;;;4.50;99.90;;;;;;5094014;28;19923;-76
2023/03/02 11:02:48;;;;;;;;;;;4.50;99.90;;;;;;5113211;28;19935;-76
2023/03/02 11:05:31;;;;;;;;;;;4.60;99.90;;;;;;5098747;28;19924;-75
2023/03/02 11:08:01;;;;;;;;;;;4.70;99.90;;;;;;5092394;28;19924;-76
2023/03/02 11:10:33;;;;;;;;;;;4.80;99.90;;;;;;5097761;28;19928;-75
2023/03/02 11:12:59;;;;;;;;;;;4.90;99.90;;;;;;5112811;28;19958;-76
2023/03/02 11:15:31;;;;;;;;;;;4.90;99.90;;;;;;5083876;28;19925;-75
2023/03/02 11:17:56;;;;;;;;;;;4.90;99.90;;;;;;5103842;28;19963;-76
2023/03/02 11:20:23;;;;;;;;;;;5.00;99.90;;;;;;5109451;28;19982;-76
2023/03/02 11:22:54;;;;;;;;;;;5.20;99.90;;;;;;5101643;27;19998;-76
2023/03/02 11:25:25;;;;;;;;;;;5.30;99.90;;;;;;5104569;28;19924;-76
2023/03/02 11:27:54;;;;;;;;;;;5.40;99.90;;;;;;5101819;28;19928;-77
2023/03/02 11:30:21;;;;;;;;;;;5.40;99.90;;;;;;5099043;28;19935;-76
2023/03/02 11:33:05;;;;;;;;;;;5.50;99.90;;;;;;5100174;28;20018;-76
2023/03/02 11:35:33;;;;;;;;;;;5.70;99.90;;;;;;5105088;28;19939;-76
2023/03/02 11:38:03;;;;;;;;;;;6.10;99.90;;;;;;5105937;28;20417;-77
2023/03/02 11:40:30;;;;;;;;;;;6.50;99.90;;;;;;5107226;28;19928;-76
2023/03/02 11:42:58;;;;;;;;;;;7.10;99.90;;;;;;5096403;28;19924;-77
2023/03/02 11:45:28;;;;;;;;;;;7.80;99.90;;;;;;5097539;28;20050;-77
2023/03/02 11:48:06;;;;;;;;;;;8.20;99.90;;;;;;5092566;28;19932;-77
2023/03/02 11:50:33;;;;;;;;;;;8.80;99.90;;;;;;5093246;28;19967;-76
2023/03/02 11:53:02;;;;;;;;;;;9.50;99.90;;;;;;5094778;28;19957;-77
2023/03/02 11:55:30;;;;;;;;;;;10.50;99.90;;;;;;5095663;28;19988;-77
2023/03/02 11:57:58;;;;;;;;;;;10.70;99.90;;;;;;5093392;28;19931;-76
2023/03/02 12:00:32;;;;;;;;;;;10.60;99.90;;;;;;5097484;28;19932;-76
2023/03/02 12:03:02;;;;;;;;;;;10.10;99.90;;;;;;5078822;28;19924;-76
2023/03/02 12:05:29;;;;;;;;;;;9.70;99.90;;;;;;5097986;28;19927;-76
2023/03/02 12:07:56;;;;;;;;;;;9.40;99.90;;;;;;5104415;28;19924;-76
2023/03/02 12:10:30;;;;;;;;;;;9.20;99.90;;;;;;5110916;28;19927;-77
2023/03/02 12:13:05;;;;;;;;;;;9.10;99.90;;;;;;5107353;28;19994;-77
2023/03/02 12:15:36;;;;;;;;;;;9.10;99.90;;;;;;5100062;28;19924;-75
2023/03/02 12:18:02;;;;;;;;;;;9.30;99.90;;;;;;5105697;28;20332;-76
2023/03/02 12:20:28;;;;;;;;;;;9.60;99.90;;;;;;5104157;28;20100;-76
2023/03/02 12:23:05;;;;;;;;;;;10.30;99.90;;;;;;5093767;28;19946;-77
2023/03/02 12:25:44;;;;;;;;;;;11.40;99.90;;;;;;5104114;28;19928;-77
2023/03/02 12:28:29;;;;;;;;;;;11.90;99.90;;;;;;5102940;28;20006;-77
2023/03/02 12:31:07;;;;;;;;;;;12.00;99.90;;;;;;5105640;28;19924;-77
2023/03/02 12:33:37;;;;;;;;;;;12.20;99.90;;;;;;5104117;28;19934;-77
2023/03/02 12:36:09;;;;;;;;;;;12.60;99.90;;;;;;5100035;28;19978;-77
2023/03/02 12:38:36;;;;;;;;;;;12.50;99.90;;;;;;5105554;28;19928;-77
2023/03/02 12:41:13;;;;;;;;;;;13.00;99.90;;;;;;5109616;28;19932;-77
2023/03/02 12:43:59;;;;;;;;;;;13.00;99.90;;;;;;5106111;28;19927;-77
2023/03/02 12:46:26;;;;;;;;;;;12.90;99.90;;;;;;5106557;28;19924;-77
2023/03/02 12:49:00;;;;;;;;;;;13.30;99.90;;;;;;5098626;28;19928;-77
2023/03/02 12:51:27;;;;;;;;;;;13.40;99.90;;;;;;5106236;28;20014;-77
2023/03/02 12:54:06;;;;;;;;;;;13.50;99.90;;;;;;5111135;28;19931;-77
2023/03/02 12:56:31;;;;;;;;;;;13.60;99.90;;;;;;5101927;28;19993;-77
2023/03/02 12:58:57;;;;;;;;;;;13.80;99.90;;;;;;5093032;28;20351;-77
2023/03/02 13:01:24;;;;;;;;;;;14.30;99.90;;;;;;5103939;28;19928;-77
2023/03/02 13:03:50;;;;;;;;;;;14.90;99.90;;;;;;5104329;28;19935;-77
2023/03/02 13:06:16;;;;;;;;;;;15.20;99.90;;;;;;5102414;28;19924;-77
2023/03/02 13:08:43;;;;;;;;;;;15.60;99.90;;;;;;5095043;28;19977;-77
2023/03/02 13:11:08;;;;;;;;;;;16.10;99.90;;;;;;5104856;28;19932;-77
2023/03/02 13:13:35;;;;;;;;;;;16.20;99.90;;;;;;5110736;28;19928;-77
2023/03/02 13:16:03;;;;;;;;;;;16.00;99.90;;;;;;5089989;28;20019;-78
2023/03/02 13:18:30;;;;;;;;;;;16.00;99.90;;;;;;5102039;28;19964;-77
2023/03/02 13:20:57;;;;;;;;;;;16.30;99.90;;;;;;5093741;28;19932;-77
2023/03/02 13:23:23;;;;;;;;;;;16.10;99.90;;;;;;5103662;28;19924;-77
2023/03/02 13:26:01;;;;;;;;;;;16.30;99.90;;;;;;5097993;28;20021;-77
2023/03/02 13:28:32;;;;;;;;;;;16.40;99.90;;;;;;5105283;28;19924;-77
2023/03/02 13:30:59;;;;;;;;;;;16.30;99.90;;;;;;5109932;28;19957;-77
2023/03/02 13:33:27;;;;;;;12.20;9.07;;;16.50;99.90;;;;;;5106496;28;19923;-77
2023/03/02 13:35:54;;;;;;;13.25;11.27;;;16.90;99.90;;;;;;5107844;28;20411;-78
2023/03/02 13:38:22;;;;;;;11.70;10.05;;;17.30;99.90;;;;;;5106195;28;20420;-77
2023/03/02 13:40:54;;;;;;;11.25;9.77;;;17.60;99.20;;;;;;5098277;28;20419;-77
2023/03/02 13:43:19;;;;;;;;;;;17.60;98.40;;;;;;5104632;28;20043;-77
2023/03/02 13:45:53;;;;;;;;;;;17.40;96.70;;;;;;5096744;28;20377;-77
2023/03/02 13:48:19;;;;;;;;;;;17.20;97.20;;;;;;5103270;28;20018;-77
2023/03/02 13:50:52;;;;;;;;;;;17.10;96.70;;;;;;5110076;28;20011;-77
2023/03/02 13:53:18;;;;;;;;;;;16.90;98.50;;;;;;5105643;28;20011;-77
2023/03/02 13:55:43;;;;;;;;;;;16.60;98.00;;;;;;5110466;28;20027;-76
2023/03/02 13:58:14;;;;;;;;;;;15.70;97.80;;;;;;5097054;28;19923;-77
2023/03/02 14:00:39;;;;;;;;;;;15.00;98.50;;;;;;5100937;28;19969;-76
2023/03/02 14:03:15;;;;;;;;;;;14.70;99.90;;;;;;5098783;28;19923;-77
2023/03/02 14:05:40;;;;;;;;;;;14.60;99.90;;;;;;5105466;28;19973;-76
2023/03/02 14:08:06;;;;;;;;;;;14.10;99.90;;;;;;5096215;28;20386;-76
2023/03/02 14:10:31;;;;;;;;;;;13.50;99.90;;;;;;5107253;28;19942;-76
2023/03/02 14:13:01;;;;;;;;;;;13.40;99.90;;;;;;5095044;28;19920;-76
2023/03/02 14:15:27;;;;;;;;;;;13.60;99.90;;;;;;5101032;28;19977;-76
2023/03/02 14:17:52;;;;;;;;;;;13.70;99.90;;;;;;5106320;28;19919;-77
2023/03/02 14:20:18;;;;;;;;;;;13.40;99.90;;;;;;5100403;28;19923;-77
2023/03/02 14:22:44;;;;;;;;;;;13.50;99.90;;;;;;5102346;28;19927;-76
2023/03/02 14:25:10;;;;;;;;;;;13.70;99.90;;;;;;5099778;28;19966;-76
2023/03/02 14:27:36;;;;;;;;;;;13.90;99.90;;;;;;5092413;28;19959;-76
2023/03/02 14:30:06;;;;;;;;;;;13.80;99.90;;;;;;5092286;28;19989;-76